Time;durP1;ratioP1;P1;durP2;ratioP2;P2;SDS_P1;SDS_P2;PMS_P1;PMS_P2;Temp;Humidity;BMP_temperature;BMP_pressure;BME280_temperature;BME280_humidity;BME280_pressure;Samples;Min_cycle;Max_cycle;Signal;HPM_P1;HPM_P2
2022/04/27 00:02:15;;;;;;;1.90;1.65;;;17.60;48.20;;;;;;4952123;28;93135;-67
2022/04/27 00:04:41;;;;;;;3.33;1.95;;;17.60;49.20;;;;;;4951500;28;92733;-66
2022/04/27 00:07:07;;;;;;;3.20;1.92;;;17.60;48.30;;;;;;4950135;28;95050;-67
2022/04/27 00:09:33;;;;;;;3.83;2.05;;;17.60;48.30;;;;;;4951806;28;92930;-66
2022/04/27 00:12:01;;;;;;;2.17;1.80;;;17.60;48.20;;;;;;4952316;28;93064;-66
2022/04/27 00:14:31;;;;;;;3.08;1.90;;;17.60;48.20;;;;;;4951200;28;93059;-66
2022/04/27 00:16:57;;;;;;;4.05;2.13;;;17.60;48.20;;;;;;4952348;28;93045;-66
2022/04/27 00:19:26;;;;;;;3.88;2.05;;;17.60;48.20;;;;;;4950334;28;92537;-66
2022/04/27 00:21:51;;;;;;;2.45;1.52;;;17.50;48.10;;;;;;4951893;28;94413;-66
2022/04/27 00:24:18;;;;;;;3.28;2.00;;;17.60;48.20;;;;;;4951484;28;94074;-66
2022/04/27 00:26:44;;;;;;;3.35;1.70;;;17.60;48.20;;;;;;4951586;28;92481;-66
2022/04/27 00:29:10;;;;;;;1.92;1.67;;;17.50;48.20;;;;;;4951799;28;92493;-66
2022/04/27 00:31:36;;;;;;;2.60;1.90;;;17.60;48.20;;;;;;4949136;28;106156;-66
2022/04/27 00:34:02;;;;;;;2.45;1.90;;;17.50;48.10;;;;;;4950448;28;96254;-66
2022/04/27 00:36:30;;;;;;;3.38;1.98;;;17.50;48.10;;;;;;4952346;28;93063;-66
2022/04/27 00:38:55;;;;;;;3.15;2.00;;;17.50;48.10;;;;;;4951694;28;92633;-66
2022/04/27 00:41:21;;;;;;;3.58;1.98;;;17.50;48.20;;;;;;4950423;28;106705;-66
2022/04/27 00:43:48;;;;;;;4.43;2.00;;;17.50;48.10;;;;;;4951146;28;94149;-67
2022/04/27 00:46:13;;;;;;;3.60;2.35;;;17.50;48.20;;;;;;4951453;28;92890;-66
2022/04/27 00:48:39;;;;;;;3.08;1.80;;;17.50;48.10;;;;;;4951496;28;92339;-67
2022/04/27 00:51:06;;;;;;;3.80;2.00;;;17.50;48.10;;;;;;4951407;28;93076;-66
2022/04/27 00:53:33;;;;;;;3.55;2.00;;;17.50;48.20;;;;;;4950785;28;94102;-66
2022/04/27 00:55:59;;;;;;;3.00;2.00;;;17.50;48.10;;;;;;4932732;28;95015;-68
2022/04/27 00:58:26;;;;;;;4.20;2.22;;;17.50;48.10;;;;;;4950727;28;92517;-67
2022/04/27 01:00:53;;;;;;;2.35;2.00;;;17.50;48.10;;;;;;4951247;28;92980;-66
2022/04/27 01:03:19;;;;;;;3.63;2.03;;;17.50;48.10;;;;;;4950764;28;93973;-66
2022/04/27 01:05:45;;;;;;;2.45;1.90;;;17.50;48.10;;;;;;4950739;28;93356;-66
2022/04/27 01:08:11;;;;;;;5.43;2.22;;;17.50;48.10;;;;;;4950836;28;92821;-66
2022/04/27 01:10:38;;;;;;;3.42;2.08;;;17.50;48.10;;;;;;4950510;28;93916;-67
2022/04/27 01:13:05;;;;;;;3.45;2.30;;;17.50;48.10;;;;;;4950884;28;92901;-66
2022/04/27 01:15:36;;;;;;;2.20;1.92;;;17.50;48.10;;;;;;4949922;28;92921;-67
2022/04/27 01:18:03;;;;;;;3.35;2.10;;;17.50;48.10;;;;;;4951381;28;93310;-66
2022/04/27 01:20:40;;;;;;;2.97;2.08;;;17.50;48.20;;;;;;4948944;28;96938;-67
2022/04/27 01:23:06;;;;;;;3.70;2.13;;;17.50;48.20;;;;;;4949340;28;97045;-66
2022/04/27 01:25:54;;;;;;;2.53;2.10;;;17.50;48.10;;;;;;4948694;28;92758;-66
2022/04/27 01:28:22;;;;;;;3.28;2.28;;;17.50;48.10;;;;;;4950113;28;92588;-66
2022/04/27 01:30:55;;;;;;;2.70;2.13;;;17.40;48.10;;;;;;4949065;28;94509;-66
2022/04/27 01:33:21;;;;;;;3.83;1.90;;;17.50;48.10;;;;;;4949684;28;93758;-66
2022/04/27 01:35:46;;;;;;;2.25;2.00;;;17.40;48.20;;;;;;4951493;28;92980;-66
2022/04/27 01:38:12;;;;;;;5.13;2.20;;;17.40;48.20;;;;;;4952579;28;96782;-67
2022/04/27 01:40:38;;;;;;;3.13;2.30;;;17.40;48.20;;;;;;4954018;28;94529;-66
2022/04/27 01:43:04;;;;;;;4.40;2.13;;;17.40;48.20;;;;;;4953534;28;94264;-66
2022/04/27 01:45:29;;;;;;;3.05;2.20;;;17.40;48.20;;;;;;4951748;28;94988;-67
2022/04/27 01:47:55;;;;;;;3.83;2.53;;;17.40;48.10;;;;;;4953776;28;92554;-66
2022/04/27 01:50:21;;;;;;;3.60;2.20;;;17.40;48.10;;;;;;4953535;28;94026;-66
2022/04/27 01:55:31;;;;;;;3.80;2.70;;;17.40;48.20;;;;;;4952783;28;92517;-66
2022/04/27 01:57:56;;;;;;;3.13;2.35;;;17.40;48.20;;;;;;4953093;28;92531;-67
2022/04/27 02:00:23;;;;;;;4.00;2.38;;;17.40;48.30;;;;;;4953505;28;94367;-67
2022/04/27 02:02:48;;;;;;;2.42;2.00;;;17.40;48.20;;;;;;4953146;28;92692;-66
2022/04/27 02:05:14;;;;;;;3.15;2.10;;;17.40;48.20;;;;;;4952404;28;92924;-66
2022/04/27 02:07:40;;;;;;;3.38;2.25;;;17.40;48.20;;;;;;4952774;28;93198;-66
2022/04/27 02:10:06;;;;;;;2.55;2.10;;;17.40;48.20;;;;;;4952280;28;96689;-66
2022/04/27 02:12:32;;;;;;;3.13;2.15;;;17.40;48.20;;;;;;4953146;28;96604;-66
2022/04/27 02:14:58;;;;;;;3.13;2.50;;;17.40;48.20;;;;;;4954112;28;93156;-66
2022/04/27 02:17:24;;;;;;;3.67;2.45;;;17.40;48.20;;;;;;4953159;28;92835;-68
2022/04/27 02:19:50;;;;;;;4.00;2.40;;;17.40;48.20;;;;;;4951972;28;93460;-66
2022/04/27 02:22:16;;;;;;;3.50;2.15;;;17.40;48.20;;;;;;4952439;28;92805;-66
2022/04/27 02:24:41;;;;;;;3.30;2.40;;;17.40;48.20;;;;;;4951767;28;93031;-66
2022/04/27 02:27:07;;;;;;;3.25;2.13;;;17.40;48.20;;;;;;4953055;28;91859;-66
2022/04/27 02:29:33;;;;;;;4.85;2.58;;;17.30;48.20;;;;;;4952345;28;93468;-66
2022/04/27 02:31:58;;;;;;;2.70;2.10;;;17.40;48.20;;;;;;4952010;28;92746;-66
2022/04/27 02:34:24;;;;;;;2.95;2.40;;;17.30;48.20;;;;;;4950630;28;95380;-66
2022/04/27 02:36:49;;;;;;;4.00;2.72;;;17.30;48.20;;;;;;4952662;28;92494;-66
2022/04/27 02:39:15;;;;;;;3.97;2.55;;;17.30;48.20;;;;;;4951888;28;93655;-66
2022/04/27 02:41:44;;;;;;;4.50;2.45;;;17.30;48.20;;;;;;4950828;28;93969;-66
2022/04/27 02:44:10;;;;;;;4.15;2.35;;;17.30;48.20;;;;;;4951721;28;93062;-67
2022/04/27 02:46:37;;;;;;;2.80;2.30;;;17.30;48.30;;;;;;4950495;28;93030;-66
2022/04/27 02:51:53;;;;;;;3.80;2.60;;;17.30;48.30;;;;;;4952572;28;92382;-67
2022/04/27 02:54:21;;;;;;;4.32;2.53;;;17.30;48.30;;;;;;4951509;28;94260;-66
2022/04/27 02:56:48;;;;;;;3.45;2.47;;;17.30;48.20;;;;;;4951554;28;92863;-66
2022/04/27 02:59:14;;;;;;;4.15;2.40;;;17.30;48.30;;;;;;4950902;28;98782;-66
2022/04/27 03:01:39;;;;;;;2.92;2.50;;;17.30;48.30;;;;;;4952250;28;97136;-66
2022/04/27 03:04:06;;;;;;;4.30;2.72;;;17.30;48.40;;;;;;4952030;28;93307;-66
2022/04/27 03:06:32;;;;;;;3.63;2.63;;;17.30;48.30;;;;;;4954438;28;93132;-66
2022/04/27 03:08:58;;;;;;;5.43;2.47;;;17.30;49.40;;;;;;4953171;28;94078;-68
2022/04/27 03:11:23;;;;;;;3.78;2.75;;;17.30;48.40;;;;;;4951972;28;94366;-66
2022/04/27 03:13:50;;;;;;;3.08;2.70;;;17.30;48.30;;;;;;4952706;28;93048;-67
2022/04/27 04:20:06;;;;;;;5.82;3.10;;;17.20;48.50;;;;;;4429793;22;93949;-65
2022/04/27 04:22:32;;;;;;;3.80;2.72;;;17.10;48.50;;;;;;4950433;28;95384;-65
2022/04/27 04:30:26;;;;;;;3.90;2.72;;;17.10;48.50;;;;;;4950205;28;92559;-66
2022/04/27 04:32:52;;;;;;;3.33;2.50;;;17.10;48.50;;;;;;4951104;28;92913;-66
2022/04/27 04:35:17;;;;;;;3.83;2.88;;;17.10;48.50;;;;;;4951840;28;93384;-66
2022/04/27 04:37:43;;;;;;;3.55;2.90;;;17.10;48.50;;;;;;4951530;28;94454;-66
2022/04/27 04:40:09;;;;;;;3.92;2.90;;;17.10;48.50;;;;;;4952650;28;92809;-66
2022/04/27 04:42:37;;;;;;;4.95;3.20;;;17.10;48.40;;;;;;4951603;28;92772;-66
2022/04/27 04:45:02;;;;;;;4.57;2.63;;;17.20;48.50;;;;;;4951420;28;92606;-66
2022/04/27 04:47:28;;;;;;;4.13;2.95;;;17.10;48.40;;;;;;4949699;28;96525;-66
2022/04/27 04:49:53;;;;;;;3.53;2.63;;;17.10;48.40;;;;;;4950140;28;95047;-66
2022/04/27 04:52:19;;;;;;;4.13;2.70;;;17.10;48.50;;;;;;4950988;28;102213;-66
2022/04/27 04:54:45;;;;;;;3.60;3.03;;;17.10;48.50;;;;;;4950945;28;92555;-66
2022/04/27 04:57:10;;;;;;;4.72;3.00;;;17.10;48.50;;;;;;4951309;28;94126;-66
2022/04/27 04:59:36;;;;;;;3.25;2.50;;;17.10;48.50;;;;;;4952210;28;94858;-66
2022/04/27 05:02:01;;;;;;;4.03;2.80;;;17.10;48.50;;;;;;4951769;28;93033;-66
2022/04/27 05:04:27;;;;;;;3.88;2.78;;;17.10;48.50;;;;;;4951312;28;91658;-66
2022/04/27 05:06:53;;;;;;;4.43;3.20;;;17.10;48.40;;;;;;4950998;28;93814;-66
2022/04/27 05:09:19;;;;;;;4.35;2.83;;;17.10;48.40;;;;;;4950016;28;93807;-66
2022/04/27 05:11:45;;;;;;;4.25;3.03;;;17.10;48.50;;;;;;4947920;28;102231;-66
2022/04/27 05:14:11;;;;;;;3.92;3.00;;;17.10;48.50;;;;;;4950686;28;92558;-66
2022/04/27 05:16:36;;;;;;;4.70;3.03;;;17.10;48.50;;;;;;4950239;28;104519;-66
2022/04/27 05:19:03;;;;;;;4.03;2.95;;;17.10;48.50;;;;;;4950456;28;93235;-66
2022/04/27 05:21:29;;;;;;;3.50;3.10;;;17.10;48.50;;;;;;4950796;28;92734;-67
2022/04/27 05:23:55;;;;;;;5.50;3.00;;;17.10;48.50;;;;;;4950566;28;92736;-66
2022/04/27 05:26:20;;;;;;;3.25;2.90;;;17.10;48.50;;;;;;4949267;28;94019;-68
2022/04/27 05:34:14;;;;;;;5.03;2.97;;;17.10;48.50;;;;;;4950578;28;92452;-66
2022/04/27 05:36:40;;;;;;;3.72;3.00;;;17.10;48.50;;;;;;4947612;28;96732;-66
2022/04/27 05:39:06;;;;;;;4.38;3.22;;;17.10;48.50;;;;;;4948744;28;97202;-66
2022/04/27 05:41:31;;;;;;;3.30;2.50;;;17.10;48.50;;;;;;4950652;28;92874;-67
2022/04/27 05:43:57;;;;;;;3.42;2.72;;;17.10;48.50;;;;;;4950166;28;93115;-67
2022/04/27 05:46:23;;;;;;;4.45;2.67;;;17.10;48.60;;;;;;4949907;28;93961;-66
2022/04/27 05:48:49;;;;;;;3.92;3.13;;;17.10;48.50;;;;;;4949208;28;93955;-67
2022/04/27 05:51:15;;;;;;;3.67;3.03;;;17.10;48.50;;;;;;4949645;28;92803;-66
2022/04/27 05:53:41;;;;;;;3.33;2.78;;;17.00;48.50;;;;;;4949110;28;91807;-66
2022/04/27 05:56:08;;;;;;;3.80;2.95;;;17.10;48.60;;;;;;4949977;28;93110;-68
2022/04/27 05:58:34;;;;;;;5.18;3.05;;;17.10;48.50;;;;;;4949663;28;92685;-67
2022/04/27 06:01:00;;;;;;;5.32;3.00;;;17.10;48.60;;;;;;4948475;28;95275;-66
2022/04/27 06:03:26;;;;;;;4.15;2.78;;;17.10;49.60;;;;;;4949150;28;92521;-67
2022/04/27 06:05:52;;;;;;;4.55;2.67;;;17.10;48.60;;;;;;4931956;28;105013;-66
2022/04/27 06:08:17;;;;;;;3.53;2.58;;;17.20;48.60;;;;;;4950129;28;93049;-65
2022/04/27 06:10:43;;;;;;;5.00;2.67;;;17.30;48.40;;;;;;4951234;28;93030;-66
2022/04/27 06:13:08;;;;;;;2.97;2.35;;;17.40;48.20;;;;;;4952252;28;92469;-66
2022/04/27 06:15:34;;;;;;;3.72;2.50;;;17.50;48.10;;;;;;4949998;28;94276;-66
2022/04/27 06:18:00;;;;;;;3.60;2.13;;;17.60;47.90;;;;;;4950332;28;94254;-65
2022/04/27 06:20:25;;;;;;;2.65;2.20;;;17.70;47.80;;;;;;4950246;28;92748;-66
2022/04/27 06:22:51;;;;;;;4.18;2.55;;;17.80;47.50;;;;;;4952965;28;93127;-66
2022/04/27 06:25:18;;;;;;;2.92;2.25;;;17.90;47.30;;;;;;4952510;28;95468;-66
2022/04/27 06:27:44;;;;;;;3.63;2.00;;;17.90;48.20;;;;;;4953483;28;96136;-65
2022/04/27 06:30:10;;;;;;;2.70;1.90;;;18.00;47.10;;;;;;4954017;28;92655;-65
2022/04/27 06:32:36;;;;;;;4.07;2.50;;;18.10;46.90;;;;;;4953529;28;92795;-66
2022/04/27 06:35:04;;;;;;;3.95;2.20;;;18.20;46.90;;;;;;4952677;28;93689;-65
2022/04/27 06:37:31;;;;;;;4.35;2.28;;;18.20;46.80;;;;;;4952738;28;93285;-66
2022/04/27 06:39:56;;;;;;;2.83;1.90;;;18.20;46.70;;;;;;4953400;28;92888;-66
2022/04/27 06:42:23;;;;;;;3.13;2.13;;;18.20;46.70;;;;;;4954360;28;92312;-66
2022/04/27 06:44:49;;;;;;;2.40;2.00;;;18.20;46.60;;;;;;4953716;28;93030;-66
2022/04/27 06:47:14;;;;;;;3.35;2.08;;;18.30;46.70;;;;;;4953266;28;93909;-66
2022/04/27 06:49:40;;;;;;;4.65;2.10;;;18.30;46.60;;;;;;4951052;28;95358;-66
2022/04/27 06:52:06;;;;;;;3.08;2.08;;;18.30;46.60;;;;;;4953131;28;93046;-66
2022/04/27 06:54:32;;;;;;;3.22;2.00;;;18.30;46.60;;;;;;4951894;28;94127;-66
2022/04/27 06:56:58;;;;;;;3.20;1.88;;;18.30;46.50;;;;;;4952980;28;93883;-65
2022/04/27 06:59:25;;;;;;;2.85;1.90;;;18.30;46.50;;;;;;4952058;28;92808;-65
2022/04/27 07:01:53;;;;;;;2.97;1.90;;;18.30;46.50;;;;;;4952865;28;92484;-65
2022/04/27 07:04:19;;;;;;;3.78;2.15;;;18.30;46.50;;;;;;4952025;28;94088;-66
2022/04/27 07:06:45;;;;;;;3.60;2.08;;;18.30;46.60;;;;;;4952449;28;94984;-66
2022/04/27 07:09:11;;;;;;;2.88;1.90;;;18.30;46.60;;;;;;4952542;28;93110;-66
2022/04/27 07:11:37;;;;;;;5.15;2.10;;;18.30;46.60;;;;;;4952566;28;92869;-66
2022/04/27 07:14:03;;;;;;;2.15;1.67;;;18.30;46.60;;;;;;4951089;28;96634;-66
2022/04/27 07:16:29;;;;;;;2.75;1.90;;;18.20;46.60;;;;;;4952148;28;96420;-67
2022/04/27 07:18:55;;;;;;;4.60;2.05;;;18.20;46.60;;;;;;4934515;28;96573;-65
2022/04/27 07:21:21;;;;;;;9.80;2.53;;;18.20;46.70;;;;;;4951843;28;92600;-65
2022/04/27 07:23:47;;;;;;;5.75;2.22;;;18.20;47.10;;;;;;4953295;28;93621;-67
2022/04/27 07:26:13;;;;;;;6.03;2.13;;;18.20;48.80;;;;;;4952304;28;92879;-67
2022/04/27 07:28:38;;;;;;;4.25;2.03;;;18.20;48.00;;;;;;4952323;28;92584;-67
2022/04/27 07:31:05;;;;;;;2.95;1.83;;;18.20;48.20;;;;;;4953490;28;93143;-67
2022/04/27 07:33:31;;;;;;;4.47;2.00;;;18.20;48.30;;;;;;4951101;28;94055;-66
2022/04/27 07:35:56;;;;;;;3.42;1.90;;;18.10;48.30;;;;;;4951968;28;93937;-66
2022/04/27 07:38:22;;;;;;;5.35;2.20;;;18.20;48.40;;;;;;4951672;28;94897;-67
2022/04/27 07:40:48;;;;;;;5.63;1.90;;;18.10;48.40;;;;;;4952113;28;92390;-70
2022/04/27 07:43:14;;;;;;;5.30;2.60;;;18.10;48.70;;;;;;4951425;28;93299;-67
2022/04/27 07:45:44;;;;;;;3.40;2.15;;;18.10;48.80;;;;;;4951091;28;94781;-67
2022/04/27 07:48:12;;;;;;;3.30;2.28;;;18.10;48.80;;;;;;4951480;28;92581;-67
2022/04/27 07:50:38;;;;;;;5.65;2.28;;;18.10;48.90;;;;;;4950787;28;92995;-67
2022/04/27 07:53:03;;;;;;;2.65;2.17;;;18.10;49.00;;;;;;4950865;28;94625;-67
2022/04/27 07:55:29;;;;;;;4.35;2.53;;;18.10;48.90;;;;;;4951492;28;93905;-67
2022/04/27 07:57:55;;;;;;;4.07;2.35;;;18.10;49.00;;;;;;4951225;28;93028;-68
2022/04/27 08:00:22;;;;;;;3.58;2.20;;;18.10;49.30;;;;;;4951886;28;92569;-68
2022/04/27 08:02:48;;;;;;;3.50;2.35;;;18.00;49.20;;;;;;4950645;28;96618;-67
2022/04/27 08:05:15;;;;;;;4.60;2.60;;;18.10;49.50;;;;;;4951669;28;96288;-67
2022/04/27 08:07:45;;;;;;;5.40;2.33;;;18.10;49.50;;;;;;4952293;28;92767;-67
2022/04/27 08:10:12;;;;;;;3.25;2.13;;;18.10;49.30;;;;;;4953051;28;92511;-67
2022/04/27 08:12:40;;;;;;;3.67;2.22;;;18.10;49.40;;;;;;4951889;28;93118;-67
2022/04/27 08:15:07;;;;;;;4.70;2.53;;;18.10;49.30;;;;;;4952109;28;94447;-67
2022/04/27 08:17:33;;;;;;;4.20;2.38;;;18.10;49.30;;;;;;4951432;28;93116;-68
2022/04/27 08:22:44;;;;;;;4.53;2.65;;;18.10;49.30;;;;;;4951931;28;92756;-68
2022/04/27 08:25:09;;;;;;;4.40;2.70;;;18.10;49.40;;;;;;4952070;28;92881;-67
2022/04/27 08:27:35;;;;;;;3.17;2.28;;;18.10;49.40;;;;;;4950194;28;96836;-68
2022/04/27 08:30:01;;;;;;;3.50;2.33;;;18.10;49.50;;;;;;4935282;28;92521;-67
2022/04/27 08:32:27;;;;;;;3.13;2.33;;;18.10;49.50;;;;;;4952025;28;94118;-67
2022/04/27 08:34:53;;;;;;;4.15;2.22;;;18.10;49.60;;;;;;4951378;28;93933;-67
2022/04/27 08:37:19;;;;;;;3.95;2.42;;;18.10;49.60;;;;;;4950991;28;93346;-67
2022/04/27 08:39:45;;;;;;;3.97;2.40;;;18.00;49.50;;;;;;4950589;28;99040;-67
2022/04/27 08:42:12;;;;;;;2.78;2.20;;;18.10;49.60;;;;;;4950576;28;94670;-67
2022/04/27 08:44:38;;;;;;;4.57;2.50;;;18.00;49.60;;;;;;4932626;28;93018;-66
2022/04/27 08:47:07;;;;;;;3.97;2.38;;;18.00;49.70;;;;;;4950305;28;92823;-66
2022/04/27 08:49:34;;;;;;;5.07;2.47;;;18.00;49.60;;;;;;4950289;28;92954;-66
2022/04/27 08:52:01;;;;;;;4.18;2.38;;;18.00;49.70;;;;;;4949838;28;95564;-66
2022/04/27 08:54:27;;;;;;;4.85;2.33;;;18.00;49.90;;;;;;4950774;28;98101;-66
2022/04/27 08:56:53;;;;;;;5.93;2.42;;;18.00;49.80;;;;;;4950569;28;92484;-67
2022/04/27 08:59:19;;;;;;;4.32;2.20;;;17.90;49.80;;;;;;4950692;28;92532;-66
2022/04/27 09:01:44;;;;;;;5.60;2.60;;;17.90;49.80;;;;;;4949475;28;94608;-67
2022/04/27 09:04:15;;;;;;;3.85;2.47;;;18.00;49.90;;;;;;4949725;28;93793;-66
2022/04/27 09:06:41;;;;;;;4.68;2.40;;;17.90;50.00;;;;;;4950048;28;92568;-66
2022/04/27 09:09:10;;;;;;;4.43;2.50;;;17.90;49.90;;;;;;4950987;28;92151;-70
2022/04/27 09:14:11;;;;;;;4.00;2.47;;;17.90;49.70;;;;;;5384705;22;93799;-68
2022/04/27 09:22:11;;;;;;;3.35;2.53;;;17.80;49.70;;;;;;4950989;28;92651;-68
2022/04/27 09:24:52;;;;;;;4.22;2.50;;;17.70;49.70;;;;;;4950884;28;93057;-68
2022/04/27 09:27:18;;;;;;;6.25;2.63;;;17.70;49.60;;;;;;4951128;28;92570;-70
2022/04/27 09:30:07;;;;;;;3.38;2.42;;;17.70;49.70;;;;;;4950679;28;92552;-67
2022/04/27 09:32:34;;;;;;;3.60;2.42;;;17.70;49.80;;;;;;4950440;28;94886;-67
2022/04/27 09:35:02;;;;;;;3.15;2.10;;;17.70;49.80;;;;;;4950578;28;94236;-67
2022/04/27 09:37:30;;;;;;;3.75;2.30;;;17.60;49.70;;;;;;4950598;28;92558;-67
2022/04/27 09:40:13;;;;;;;5.07;2.38;;;17.60;49.70;;;;;;4951942;28;92616;-67
2022/04/27 09:42:45;;;;;;;5.28;2.38;;;17.60;49.70;;;;;;4949082;28;96483;-68
2022/04/27 09:45:17;;;;;;;4.28;2.33;;;17.50;49.70;;;;;;4949711;28;97430;-67
2022/04/27 09:47:47;;;;;;;4.97;2.30;;;17.60;50.80;;;;;;4950283;28;92524;-67
2022/04/27 09:50:13;;;;;;;5.18;2.60;;;17.60;49.70;;;;;;4949439;28;92582;-67
2022/04/27 09:52:40;;;;;;;3.38;2.17;;;17.60;49.70;;;;;;4950333;28;93681;-67
2022/04/27 09:55:07;;;;;;;5.40;2.30;;;17.60;49.70;;;;;;4949960;28;93702;-68
2022/04/27 09:57:37;;;;;;;3.42;2.05;;;17.50;49.60;;;;;;4952593;28;92574;-67
2022/04/27 10:00:04;;;;;;;4.10;2.03;;;17.60;49.60;;;;;;4953616;28;91861;-67
2022/04/27 10:02:31;;;;;;;3.65;2.10;;;17.60;49.60;;;;;;4952430;28;94788;-67
2022/04/27 10:04:59;;;;;;;2.28;1.92;;;17.50;49.50;;;;;;4952398;28;94445;-67
2022/04/27 10:07:25;;;;;;;4.30;2.10;;;17.60;49.50;;;;;;4951546;28;95111;-67
2022/04/27 10:09:52;;;;;;;4.25;2.00;;;17.50;49.50;;;;;;4953096;28;92590;-67
2022/04/27 10:12:18;;;;;;;3.53;2.03;;;17.50;49.40;;;;;;4953204;28;94303;-68
2022/04/27 10:14:44;;;;;;;3.80;1.90;;;17.50;49.30;;;;;;4947111;28;93656;-68
2022/04/27 10:17:12;;;;;;;3.55;2.10;;;17.50;49.30;;;;;;4933045;28;92558;-67
2022/04/27 10:19:46;;;;;;;2.75;1.80;;;17.50;49.30;;;;;;4933800;28;92991;-67
2022/04/27 10:22:31;;;;;;;4.03;2.20;;;17.50;49.30;;;;;;4933465;28;94097;-67
2022/04/27 10:25:05;;;;;;;8.60;2.40;;;17.50;49.20;;;;;;4932423;28;93934;-68
2022/04/27 10:27:37;;;;;;;5.40;2.25;;;17.50;48.10;;;;;;4933389;28;93363;-67
2022/04/27 10:30:08;;;;;;;10.23;2.45;;;17.40;47.40;;;;;;4915800;28;93063;-68
2022/04/27 10:32:47;;;;;;;10.98;4.10;;;17.40;47.20;;;;;;4933414;28;98210;-67
2022/04/27 10:35:30;;;;;;;28.98;8.80;;;17.50;47.50;;;;;;4933845;28;96627;-67
2022/04/27 10:38:02;;;;;;;56.53;15.65;;;17.50;47.90;;;;;;4934029;28;92941;-68
2022/04/27 10:40:43;;;;;;;38.33;11.90;;;17.50;48.50;;;;;;4933626;28;92969;-67
2022/04/27 10:43:11;;;;;;;39.80;12.18;;;17.50;48.60;;;;;;4932864;28;93189;-66
2022/04/27 10:45:42;;;;;;;40.13;11.85;;;17.50;48.80;;;;;;4932437;28;94346;-67
2022/04/27 10:48:15;;;;;;;45.60;12.50;;;17.50;48.80;;;;;;4932116;28;92779;-67
2022/04/27 10:51:00;;;;;;;37.55;12.30;;;17.60;48.90;;;;;;4932248;28;92061;-67
2022/04/27 10:53:38;;;;;;;37.00;11.30;;;17.60;48.90;;;;;;4931360;28;94525;-67
2022/04/27 10:56:19;;;;;;;43.30;11.70;;;17.60;48.90;;;;;;4932337;28;93204;-68
2022/04/27 10:58:52;;;;;;;35.55;11.05;;;17.60;49.00;;;;;;4932221;28;95006;-67
2022/04/27 11:01:22;;;;;;;31.00;9.00;;;17.60;49.00;;;;;;4938009;28;92727;-67
2022/04/27 11:03:56;;;;;;;35.50;10.50;;;17.60;49.00;;;;;;4936979;28;93177;-68
2022/04/27 11:06:22;;;;;;;32.28;10.10;;;17.70;49.10;;;;;;4932833;28;94496;-68
2022/04/27 11:09:02;;;;;;;35.88;10.20;;;17.60;49.00;;;;;;4931218;28;92547;-68
2022/04/27 11:11:28;;;;;;;30.80;9.48;;;17.70;48.90;;;;;;4932921;28;92815;-67
2022/04/27 11:14:03;;;;;;;29.33;9.32;;;17.60;49.00;;;;;;4932236;28;95379;-68
2022/04/27 11:16:29;;;;;;;30.60;9.15;;;17.60;49.10;;;;;;4932680;28;94347;-68
2022/04/27 11:18:59;;;;;;;29.73;9.27;;;17.60;48.90;;;;;;4932244;28;92766;-68
2022/04/27 11:21:30;;;;;;;25.63;8.50;;;17.60;48.90;;;;;;4931034;28;92511;-68
2022/04/27 11:23:59;;;;;;;25.45;8.18;;;17.60;48.90;;;;;;4930424;28;96967;-68
2022/04/27 11:26:25;;;;;;;27.92;8.63;;;17.60;48.80;;;;;;4931860;28;96371;-68
2022/04/27 11:28:53;;;;;;;28.52;9.02;;;17.60;48.80;;;;;;4932505;28;93094;-68
2022/04/27 11:31:20;;;;;;;22.95;8.18;;;17.60;48.70;;;;;;4932106;28;92539;-67
2022/04/27 11:33:46;;;;;;;25.63;9.00;;;17.60;48.70;;;;;;4931947;28;93920;-68
2022/04/27 11:36:26;;;;;;;25.75;8.13;;;17.60;48.70;;;;;;4932320;28;94567;-68
2022/04/27 11:38:53;;;;;;;21.60;7.53;;;17.70;48.60;;;;;;4932278;28;92605;-68
2022/04/27 11:41:21;;;;;;;20.10;7.15;;;17.60;48.60;;;;;;4932724;28;91820;-68
2022/04/27 11:43:48;;;;;;;24.10;7.90;;;17.60;48.50;;;;;;4933600;28;93215;-67
2022/04/27 11:46:14;;;;;;;20.35;7.47;;;17.70;48.60;;;;;;4933145;28;92939;-68
2022/04/27 11:48:45;;;;;;;23.25;7.75;;;17.70;48.60;;;;;;4932401;28;95420;-67
2022/04/27 11:51:11;;;;;;;21.13;7.55;;;17.60;48.50;;;;;;4932509;28;92417;-67
2022/04/27 11:53:46;;;;;;;24.73;7.60;;;17.70;48.60;;;;;;4931418;28;104557;-68
2022/04/27 11:56:12;;;;;;;17.63;6.78;;;17.70;48.50;;;;;;4933077;28;93570;-68
2022/04/27 11:58:40;;;;;;;19.33;6.60;;;17.60;48.50;;;;;;4932697;28;93178;-68
2022/04/27 12:01:06;;;;;;;22.23;7.43;;;17.60;48.40;;;;;;4931858;28;92602;-69
2022/04/27 12:03:39;;;;;;;17.38;6.78;;;17.60;48.40;;;;;;4931672;28;93159;-68
2022/04/27 12:06:05;;;;;;;19.20;7.43;;;17.60;48.40;;;;;;4931613;28;93474;-67
2022/04/27 12:08:35;;;;;;;17.67;6.78;;;17.60;48.40;;;;;;4932057;28;92508;-68
2022/04/27 12:11:01;;;;;;;16.90;6.78;;;17.60;48.40;;;;;;4931490;28;92572;-68
2022/04/27 12:13:27;;;;;;;16.67;6.13;;;17.60;48.40;;;;;;4929580;28;96393;-68
2022/04/27 12:15:55;;;;;;;17.30;6.43;;;17.60;48.50;;;;;;4930428;28;96701;-68
2022/04/27 12:18:28;;;;;;;18.33;6.18;;;17.60;48.40;;;;;;4931311;28;92544;-68
2022/04/27 12:20:57;;;;;;;17.17;6.10;;;17.60;48.40;;;;;;4932388;28;92646;-69
2022/04/27 12:23:36;;;;;;;18.00;6.43;;;17.60;48.30;;;;;;4931155;28;94561;-67
2022/04/27 12:26:02;;;;;;;16.90;6.05;;;17.60;48.30;;;;;;4931134;28;92861;-68
2022/04/27 12:28:33;;;;;;;16.35;6.40;;;17.60;48.40;;;;;;4932525;28;92691;-67
2022/04/27 12:31:03;;;;;;;13.68;5.90;;;17.60;48.30;;;;;;4932268;28;92133;-67
2022/04/27 12:33:44;;;;;;;16.40;5.50;;;17.60;48.20;;;;;;4931497;28;94827;-67
2022/04/27 12:39:11;;;;;;;14.20;5.82;;;17.50;48.30;;;;;;4930337;28;94845;-67
2022/04/27 12:41:44;;;;;;;14.25;5.50;;;17.50;48.40;;;;;;4930554;28;92915;-69
2022/04/27 12:44:15;;;;;;;16.42;5.50;;;17.60;48.30;;;;;;4931846;28;95469;-68
2022/04/27 12:47:01;;;;;;;13.35;5.50;;;17.50;48.30;;;;;;4930498;28;94210;-68
2022/04/27 12:49:44;;;;;;;13.45;5.45;;;17.50;48.20;;;;;;4931657;28;92864;-68
2022/04/27 12:52:30;;;;;;;9.38;4.00;;;17.50;48.30;;;;;;4931688;28;93030;-68
2022/04/27 12:55:05;;;;;;;12.60;4.90;;;17.50;48.40;;;;;;4933121;28;94088;-67
2022/04/27 12:57:49;;;;;;;12.82;5.10;;;17.50;48.40;;;;;;4933218;28;96109;-68
2022/04/27 13:00:17;;;;;;;12.15;4.72;;;17.50;48.40;;;;;;4931477;28;92534;-68
2022/04/27 13:02:46;;;;;;;11.93;5.03;;;17.50;48.40;;;;;;4932039;28;93020;-69
2022/04/27 13:05:12;;;;;;;13.95;5.35;;;17.50;48.30;;;;;;4929773;28;95628;-68
2022/04/27 13:07:39;;;;;;;12.48;5.50;;;17.50;48.30;;;;;;4930857;28;96243;-68
2022/04/27 13:12:51;;;;;;;12.63;4.70;;;17.50;48.30;;;;;;4931986;28;92527;-69
2022/04/27 13:15:16;;;;;;;12.77;5.05;;;17.50;48.30;;;;;;4930478;28;94416;-69
2022/04/27 13:17:42;;;;;;;12.82;4.72;;;17.50;48.30;;;;;;4931753;28;93603;-68
2022/04/27 13:20:09;;;;;;;11.52;5.18;;;17.50;48.20;;;;;;4930618;28;92575;-68
2022/04/27 13:22:36;;;;;;;9.02;4.50;;;17.50;48.20;;;;;;4930943;28;92266;-67
2022/04/27 13:25:01;;;;;;;11.80;4.82;;;17.50;48.20;;;;;;4929886;28;93330;-67
2022/04/27 13:27:27;;;;;;;10.68;4.72;;;17.50;48.20;;;;;;4930488;28;93766;-67
2022/04/27 13:29:54;;;;;;;10.18;4.65;;;17.50;48.10;;;;;;4929389;28;95309;-68
2022/04/27 13:32:20;;;;;;;11.38;4.65;;;17.50;48.30;;;;;;4932545;28;93147;-67
2022/04/27 13:34:46;;;;;;;10.57;4.47;;;17.50;48.30;;;;;;4934673;28;93724;-68
2022/04/27 13:37:13;;;;;;;9.38;4.35;;;17.50;48.30;;;;;;4934181;28;93138;-67
2022/04/27 13:39:39;;;;;;;8.48;4.18;;;17.50;48.20;;;;;;4934786;28;102627;-68
2022/04/27 13:42:05;;;;;;;9.10;4.35;;;17.50;48.30;;;;;;4934496;28;92562;-67
2022/04/27 13:44:32;;;;;;;8.88;4.50;;;17.50;48.30;;;;;;4933989;28;94433;-68
2022/04/27 13:46:57;;;;;;;7.10;4.03;;;17.60;48.20;;;;;;4934973;28;94454;-68
2022/04/27 13:49:24;;;;;;;10.95;4.88;;;17.50;48.20;;;;;;4934522;28;92925;-68
2022/04/27 13:51:51;;;;;;;9.75;3.85;;;17.50;48.20;;;;;;4934393;28;93178;-70
2022/04/27 13:54:19;;;;;;;7.93;3.90;;;17.50;48.10;;;;;;4932451;28;96908;-68
2022/04/27 13:56:44;;;;;;;8.60;4.03;;;17.60;48.20;;;;;;4934010;28;95610;-67
2022/04/27 13:59:11;;;;;;;9.25;4.15;;;17.50;48.10;;;;;;4934863;28;92826;-68
2022/04/27 14:01:38;;;;;;;7.20;3.65;;;17.60;48.10;;;;;;4934862;28;92846;-68
2022/04/27 14:04:03;;;;;;;8.45;3.65;;;17.60;48.10;;;;;;4932699;28;93341;-68
2022/04/27 14:06:29;;;;;;;10.82;4.10;;;17.60;48.20;;;;;;4933550;28;94139;-68
2022/04/27 14:08:55;;;;;;;8.32;3.80;;;17.60;48.10;;;;;;4933075;28;92569;-67
2022/04/27 14:14:05;;;;;;;8.82;3.72;;;17.60;48.00;;;;;;4933413;28;92907;-67
2022/04/27 14:19:15;;;;;;;7.88;3.90;;;17.60;48.00;;;;;;4932357;28;95257;-67
2022/04/27 14:21:41;;;;;;;6.85;3.53;;;17.60;48.10;;;;;;4933420;28;92881;-68
2022/04/27 14:24:09;;;;;;;9.30;3.70;;;17.60;48.00;;;;;;4934317;28;93640;-69
2022/04/27 14:26:38;;;;;;;8.23;3.67;;;17.70;48.00;;;;;;4933140;28;94174;-67
2022/04/27 14:29:05;;;;;;;8.02;3.65;;;17.70;47.90;;;;;;4933005;28;92883;-67